Chachapoyas, Peru
Current Conditions -  °F | °C
As of 6:00 PM on Saturday 20 Dec 2014 (Local Time) from SPJR Reporting Station
Few Clouds Few Clouds  
Wind Chill: 18°   Ceiling: Unl
Heat Index: 18°   Visibility: 6mi
Dew Point:   Wind: 6mph
Humidity: 56%   Direction: 260°W
Pressure: 30.24"   Gusts: NA
Location:  6.23°S, 77.87°W
Report Text: SPJR 202300Z 26005KT 9999 FEW047 18/09 Q1024 RMK BIRDHAZARD RWY 16/34 PP000
Loading
Personal Weather Stations






























Interactive Weather Map New forecast layout! Learn more

10-Day Weather Forecast

Advertisements
Track Severe Weather on mobile